UMKK

Khrabrovo Airport

Kaliningrad, Russian Federation
TAF UMKK 170159Z 1703/1803 22007G14MPS 3100 -RA BR OVC011 TEMPO 1703/1712 25010G15MPS BKN005 FM171200 25006G12MPS 6000 BKN011 TEMPO 1715/1721 3100 -SHRA SCT015CB TEMPO 1800/1803 22005MPS -SHRASN BKN006 BKN012CB
Issued Valid From Valid To
Jan-17 @ 01:59 UTC
(3 hours ago)
Jan-17 @ 03:00 UTC
(2 hours ago)
Jan-18 @ 03:00 UTC
(in 22 hours)
Jan-17 @ 03:00 to Jan-17 @ 12:00
TAF UMKK 170159Z 1703/1803 22007G14MPS 3100 -RA BR OVC011
Wind Visibility Clouds Conditions
220° at 14 knots
 Gusting to 27 knots
3,106 meters
  • Overcast at 1,100' AGL
  • Light Rain
  • Mist
Temporary Jan-17 @ 03:00 to Jan-17 @ 12:00
TEMPO 1703/1712 25010G15MPS BKN005
Wind Clouds
250° at 19 knots
 Gusting to 29 knots
  • Broken at 500' AGL
From Jan-17 @ 12:00 to Jan-18 @ 03:00
FM171200 25006G12MPS 6000 BKN011
Wind Visibility Clouds
250° at 12 knots
 Gusting to 23 knots
6,003 meters
  • Broken at 1,100' AGL
Temporary Jan-17 @ 15:00 to Jan-17 @ 21:00
TEMPO 1715/1721 3100 -SHRA SCT015CB
Visibility Clouds Conditions
3,106 meters
  • Scattered at 1,500' AGL
  • Light Rain
Temporary Jan-18 @ 00:00 to Jan-18 @ 03:00
TEMPO 1800/1803 22005MPS -SHRASN BKN006 BKN012CB
Wind Clouds Conditions
220° at 10 knots
  • Broken at 600' AGL
  • Broken at 1,200' AGL
  • Light Rain
  • Light Snow
TAF UMKK 170159Z 1703/1803 22007G14MPS 3100 -RA BR OVC011 TEMPO 1703/1712 25010G15MPS BKN005 FM171200 25006G12MPS 6000 BKN011 TEMPO 1715/1721 3100 -SHRA SCT015CB TEMPO 1800/1803 22005MPS -SHRASN BKN006 BKN012CB
Issued Jan-17 @ 01:59 UTC
(3 hours ago)
Valid From Jan-17 @ 03:00 UTC
(2 hours ago)
Valid To Jan-18 @ 03:00 UTC
(in 22 hours)
Jan-17 @ 03:00 - Jan-17 @ 12:00
Wind Visibility
220° at 14 knots
 Gusting to 27 knots
3,106 meters
Clouds
  • Overcast at 1,100' AGL
Conditions
  • Light Rain
  • Mist
Temporary Jan-17 @ 03:00 - Jan-17 @ 12:00
Wind
250° at 19 knots
 Gusting to 29 knots
Clouds
  • Broken at 500' AGL
From Jan-17 @ 12:00 - Jan-18 @ 03:00
Wind Visibility
250° at 12 knots
 Gusting to 23 knots
6,003 meters
Clouds
  • Broken at 1,100' AGL
Temporary Jan-17 @ 15:00 - Jan-17 @ 21:00
Clouds
  • Scattered at 1,500' AGL
Conditions
  • Light Rain
Temporary Jan-18 @ 00:00 - Jan-18 @ 03:00
Wind
220° at 10 knots
Clouds
  • Broken at 600' AGL
  • Broken at 1,200' AGL
Conditions
  • Light Rain
  • Light Snow